Terminal Aerodrome Forecast
Issued by NWS Cleveland, OH

Home | Current Version | Previous Version | Graphics & Text | Print | Product List | Glossary On
Versions: 1 2 3 4 5 6 7 8 9 10 11 12 13 14 15 16 17 18 19 20 21 22 23 24
000
FTUS41 KCLE 131756
TAFTOL
TAF
KTOL 131756Z 1318/1418 16010KT 3/4SM -SN BKN025 OVC040
      TEMPO 1318/1319 OVC012
     FM131900 15010KT 3SM -SHSN BKN015 OVC021
     FM132200 07012KT 1/2SM SN BKN007 OVC023
     FM140400 04012KT P6SM BKN007 OVC023
     FM140600 36013KT P6SM SCT024 OVC035
     FM141400 33009KT P6SM OVC035
     FM141700 32008KT P6SM FEW150 SCT250=

USA.gov is the U.S. government's official web portal to all federal, state and local government web resources and services.